createdAt,value
2018-05-11T00:01:36.173Z,23.00
2018-05-11T00:04:03.629Z,21.83
2018-05-11T00:06:31.066Z,23.93
2018-05-11T00:08:58.488Z,23.67
2018-05-11T00:11:25.932Z,22.83
2018-05-11T00:13:53.372Z,23.67
2018-05-11T00:16:20.812Z,21.00
2018-05-11T00:18:48.263Z,23.10
2018-05-11T00:21:15.698Z,20.70
2018-05-11T00:23:43.134Z,20.17
2018-05-11T00:26:11.819Z,21.70
2018-05-11T00:28:39.268Z,20.67
2018-05-11T00:31:06.705Z,19.30
2018-05-11T00:33:34.169Z,21.07
2018-05-11T00:36:01.702Z,21.27
2018-05-11T00:38:29.147Z,19.60
2018-05-11T00:40:56.588Z,19.30
2018-05-11T00:43:24.060Z,20.10
2018-05-11T00:45:51.497Z,19.37
2018-05-11T00:48:18.937Z,20.37
2018-05-11T00:50:46.365Z,21.30
2018-05-11T00:53:13.797Z,21.17
2018-05-11T00:55:47.909Z,20.97
2018-05-11T00:58:15.340Z,21.83
2018-05-11T01:00:42.995Z,20.47
2018-05-11T01:03:10.445Z,21.43
2018-05-11T01:05:37.880Z,21.27
2018-05-11T01:08:05.412Z,21.27
2018-05-11T01:10:32.849Z,21.50
2018-05-11T01:13:00.289Z,21.40
2018-05-11T01:15:27.945Z,20.83
2018-05-11T01:17:55.408Z,22.00
2018-05-11T01:20:22.847Z,20.43
2018-05-11T01:22:50.284Z,20.60
2018-05-11T01:25:17.992Z,20.60
2018-05-11T01:27:45.429Z,22.40
2018-05-11T01:30:12.860Z,22.17
2018-05-11T01:32:40.304Z,22.70
2018-05-11T01:35:07.844Z,22.30
2018-05-11T01:37:35.280Z,22.67
2018-05-11T01:40:02.765Z,22.40
2018-05-11T01:42:30.196Z,21.93
2018-05-11T01:44:57.634Z,21.00
2018-05-11T01:47:25.138Z,20.50
2018-05-11T01:49:52.574Z,20.67
2018-05-11T01:52:20.006Z,21.47
2018-05-11T01:54:47.449Z,21.27
2018-05-11T01:57:14.960Z,20.80
2018-05-11T01:59:42.397Z,20.67
2018-05-11T02:02:10.046Z,20.27
2018-05-11T02:04:37.467Z,23.00
2018-05-11T02:07:04.909Z,20.40
2018-05-11T02:09:32.347Z,20.93
2018-05-11T02:11:59.801Z,20.10
2018-05-11T02:14:27.237Z,20.40
2018-05-11T02:16:54.721Z,20.80
2018-05-11T02:19:22.149Z,21.73
2018-05-11T02:21:49.580Z,20.77
2018-05-11T02:24:17.025Z,22.20
2018-05-11T02:26:44.455Z,21.20
2018-05-11T02:29:11.892Z,19.40
2018-05-11T02:31:39.342Z,22.90
2018-05-11T02:34:06.782Z,20.93
2018-05-11T02:36:34.218Z,22.90
2018-05-11T02:39:01.660Z,22.10
2018-05-11T02:41:29.094Z,19.13
2018-05-11T02:43:56.522Z,19.80
2018-05-11T02:46:23.979Z,23.37
2018-05-11T02:48:51.415Z,22.47
2018-05-11T02:51:18.850Z,22.83
2018-05-11T02:53:46.328Z,22.57
2018-05-11T02:56:13.762Z,21.97
2018-05-11T02:58:41.197Z,22.00
2018-05-11T03:01:08.633Z,21.97
2018-05-11T03:03:36.066Z,24.00
2018-05-11T03:06:03.503Z,23.47
2018-05-11T03:08:30.979Z,23.77
2018-05-11T03:10:58.493Z,22.13
2018-05-11T03:13:25.931Z,23.57
2018-05-11T03:15:53.682Z,22.60
2018-05-11T03:18:21.126Z,23.20
2018-05-11T03:20:48.556Z,23.63
2018-05-11T03:23:16.006Z,22.60
2018-05-11T03:25:43.435Z,24.77
2018-05-11T03:28:10.871Z,24.30
2018-05-11T03:30:38.315Z,23.83
2018-05-11T03:33:05.744Z,23.63
2018-05-11T03:35:33.182Z,23.43
2018-05-11T03:38:00.718Z,25.47
2018-05-11T03:40:28.161Z,23.70
2018-05-11T03:42:55.620Z,23.73
2018-05-11T03:45:23.199Z,24.97
2018-05-11T03:47:50.645Z,26.75
2018-05-11T03:50:18.136Z,23.33
2018-05-11T03:52:45.581Z,23.77
2018-05-11T03:55:13.162Z,23.23
2018-05-11T03:57:40.620Z,24.73
2018-05-11T04:00:08.065Z,25.10
2018-05-11T04:02:47.477Z,24.37
2018-05-11T04:05:26.705Z,22.60
2018-05-11T04:08:05.933Z,23.53
2018-05-11T04:10:33.373Z,24.83
2018-05-11T04:13:00.797Z,21.53
2018-05-11T04:15:28.776Z,23.93
2018-05-11T04:17:56.238Z,24.20
2018-05-11T04:20:24.653Z,23.50
2018-05-11T04:22:52.080Z,21.33
2018-05-11T04:25:19.568Z,24.37
2018-05-11T04:27:47.000Z,23.53
2018-05-11T04:30:14.465Z,23.27
2018-05-11T04:32:41.895Z,21.43
2018-05-11T04:35:09.320Z,21.27
2018-05-11T04:37:36.857Z,24.33
2018-05-11T04:40:04.318Z,21.20
2018-05-11T04:42:31.752Z,24.20
2018-05-11T04:44:59.190Z,22.60
2018-05-11T04:47:26.635Z,21.73
2018-05-11T04:49:54.070Z,21.30
2018-05-11T04:52:21.518Z,23.53
2018-05-11T04:54:49.053Z,21.43
2018-05-11T04:57:16.580Z,22.77
2018-05-11T04:59:44.018Z,20.70
2018-05-11T05:02:11.474Z,23.07
2018-05-11T05:04:38.917Z,20.77
2018-05-11T05:07:06.446Z,20.87
2018-05-11T05:09:33.885Z,21.33
2018-05-11T05:12:01.317Z,19.50
2018-05-11T05:14:28.750Z,19.93
2018-05-11T05:16:56.197Z,21.10
2018-05-11T05:19:23.713Z,20.20
2018-05-11T05:21:51.095Z,21.70
2018-05-11T05:24:18.539Z,21.00
2018-05-11T05:26:45.973Z,20.80
2018-05-11T05:29:13.397Z,20.60
2018-05-11T05:31:40.864Z,19.07
2018-05-11T05:34:08.371Z,19.13
2018-05-11T05:36:35.822Z,20.67
2018-05-11T05:39:03.277Z,18.57
2018-05-11T05:41:30.744Z,20.70
2018-05-11T05:43:58.182Z,21.43
2018-05-11T05:46:25.621Z,19.73
2018-05-11T05:48:53.064Z,26.23
2018-05-11T05:51:20.572Z,19.70
2018-05-11T05:53:48.038Z,20.00
2018-05-11T05:56:15.464Z,20.00
2018-05-11T05:58:42.911Z,20.70
2018-05-11T06:01:10.360Z,18.87
2018-05-11T06:03:37.861Z,20.33
2018-05-11T06:06:05.290Z,19.30
2018-05-11T06:08:32.737Z,19.73
2018-05-11T06:11:00.187Z,21.17
2018-05-11T06:13:27.690Z,21.30
2018-05-11T06:15:55.145Z,21.50
2018-05-11T06:18:22.573Z,21.90
2018-05-11T06:20:50.017Z,20.37
2018-05-11T06:23:17.468Z,21.90
2018-05-11T06:25:44.901Z,22.57
2018-05-11T06:28:12.333Z,21.50
2018-05-11T06:30:39.786Z,20.60
2018-05-11T06:33:07.213Z,22.93
2018-05-11T06:35:34.648Z,20.90
2018-05-11T06:38:02.104Z,21.03
2018-05-11T06:40:29.700Z,19.43
2018-05-11T06:42:57.175Z,20.90
2018-05-11T06:45:24.619Z,21.67
2018-05-11T06:47:52.132Z,20.00
2018-05-11T06:50:19.616Z,21.50
2018-05-11T06:52:47.106Z,21.93
2018-05-11T06:55:14.545Z,22.00
2018-05-11T06:57:41.987Z,21.37
2018-05-11T07:00:09.443Z,20.97
2018-05-11T07:02:36.874Z,21.33
2018-05-11T07:05:04.310Z,23.50
2018-05-11T07:07:31.849Z,24.87
2018-05-11T07:09:59.284Z,22.93
2018-05-11T07:12:26.720Z,23.47
2018-05-11T07:14:54.162Z,21.87
2018-05-11T07:17:21.675Z,22.53
2018-05-11T07:19:49.116Z,22.80
2018-05-11T07:22:16.560Z,22.60
2018-05-11T07:24:44.054Z,22.77
2018-05-11T07:27:11.498Z,22.47
2018-05-11T07:29:38.952Z,22.57
2018-05-11T07:32:06.389Z,22.80
2018-05-11T07:34:33.823Z,24.57
2018-05-11T07:37:01.303Z,23.00
2018-05-11T07:39:28.733Z,22.67
2018-05-11T07:41:56.162Z,22.13
2018-05-11T07:44:23.603Z,24.27
2018-05-11T07:46:51.133Z,20.97
2018-05-11T07:49:18.565Z,21.53
2018-05-11T07:51:46.159Z,21.27
2018-05-11T07:54:13.637Z,22.57
2018-05-11T07:56:41.069Z,22.40
2018-05-11T07:59:08.509Z,21.33
2018-05-11T08:01:35.943Z,21.97
2018-05-11T08:04:03.424Z,22.80
2018-05-11T08:06:30.825Z,22.13
2018-05-11T08:08:58.260Z,21.87
2018-05-11T08:11:25.684Z,21.87
2018-05-11T08:13:53.135Z,20.50
2018-05-11T08:16:20.565Z,20.20
2018-05-11T08:18:47.997Z,20.10
2018-05-11T08:21:15.456Z,19.30
2018-05-11T08:23:42.890Z,21.60
2018-05-11T08:26:10.656Z,19.60
2018-05-11T08:28:38.110Z,20.47
2018-05-11T08:31:05.540Z,20.33
2018-05-11T08:33:32.980Z,20.00
2018-05-11T08:36:00.418Z,57.87
2018-05-11T08:38:27.853Z,22.83
2018-05-11T08:40:55.287Z,20.20
2018-05-11T08:43:22.752Z,20.73
2018-05-11T08:45:50.177Z,20.70
2018-05-11T08:48:17.629Z,20.87
2018-05-11T08:50:45.089Z,19.83
2018-05-11T08:53:12.527Z,19.30
2018-05-11T08:55:39.957Z,20.57
2018-05-11T08:58:07.410Z,21.37
2018-05-11T09:00:34.869Z,20.23
2018-05-11T09:03:02.409Z,19.73
2018-05-11T09:05:29.759Z,21.80
2018-05-11T09:07:57.516Z,19.50
2018-05-11T09:10:24.949Z,19.43
2018-05-11T09:12:52.483Z,18.57
2018-05-11T09:15:19.932Z,17.97
2018-05-11T09:17:47.364Z,18.53
2018-05-11T09:20:14.831Z,24.93
2018-05-11T09:22:42.272Z,16.80
2018-05-11T09:25:09.783Z,19.70
2018-05-11T09:27:37.236Z,19.60
2018-05-11T09:30:04.811Z,20.47
2018-05-11T09:32:32.240Z,20.30
2018-05-11T09:34:59.690Z,19.07
2018-05-11T09:37:27.132Z,20.07
2018-05-11T09:39:54.731Z,18.50
2018-05-11T09:42:22.226Z,18.50
2018-05-11T09:44:49.661Z,20.17
2018-05-11T09:47:17.097Z,19.30
2018-05-11T09:49:44.542Z,20.03
2018-05-11T09:52:11.969Z,25.47
2018-05-11T09:54:39.401Z,20.77
2018-05-11T09:57:06.861Z,19.73
2018-05-11T09:59:34.300Z,21.27
2018-05-11T10:02:01.797Z,23.30
2018-05-11T10:04:29.245Z,20.20
2018-05-11T10:06:56.693Z,20.27
2018-05-11T10:09:24.130Z,20.93
2018-05-11T10:11:51.572Z,22.93
2018-05-11T10:14:19.014Z,18.97
2018-05-11T10:16:46.448Z,21.17
2018-05-11T10:19:13.894Z,17.03
2018-05-11T10:21:41.334Z,21.40
2018-05-11T10:24:08.781Z,20.97
2018-05-11T10:26:36.241Z,21.73
2018-05-11T10:29:03.797Z,22.27
2018-05-11T10:31:31.317Z,20.77
2018-05-11T10:33:58.798Z,22.10
2018-05-11T10:36:26.234Z,21.03
2018-05-11T10:38:53.681Z,18.23
2018-05-11T10:41:21.125Z,18.83
2018-05-11T10:43:48.609Z,21.00
2018-05-11T10:46:16.041Z,19.30
2018-05-11T10:48:43.541Z,20.63
2018-05-11T10:51:10.972Z,20.63
2018-05-11T10:53:38.423Z,20.77
2018-05-11T10:56:05.959Z,20.87
2018-05-11T10:58:33.441Z,21.17
2018-05-11T11:01:00.875Z,20.90
2018-05-11T11:03:28.434Z,22.30
2018-05-11T11:05:55.874Z,23.30
2018-05-11T11:08:23.390Z,20.47
2018-05-11T11:10:50.843Z,20.87
2018-05-11T11:13:18.416Z,19.30
2018-05-11T11:15:46.390Z,19.30
2018-05-11T11:18:13.834Z,17.40
2018-05-11T11:20:41.301Z,17.80
2018-05-11T11:23:09.474Z,16.67
2018-05-11T11:25:36.924Z,18.23
2018-05-11T11:28:04.482Z,20.17
2018-05-11T11:30:31.993Z,16.80
2018-05-11T11:32:59.449Z,24.30
2018-05-11T11:35:26.887Z,19.10
2018-05-11T11:37:54.326Z,16.60
2018-05-11T11:40:21.878Z,17.40
2018-05-11T11:42:49.325Z,15.03
2018-05-11T11:45:16.781Z,14.57
2018-05-11T11:47:44.329Z,21.83
2018-05-11T11:50:11.765Z,19.30
2018-05-11T11:52:39.196Z,15.27
2018-05-11T11:55:06.646Z,15.60
2018-05-11T11:57:34.158Z,14.90
2018-05-11T12:00:01.905Z,15.73
2018-05-11T12:02:29.357Z,14.97
2018-05-11T12:04:56.793Z,15.40
2018-05-11T12:07:24.220Z,14.50
2018-05-11T12:09:51.666Z,14.87
2018-05-11T12:12:19.100Z,13.07
2018-05-11T12:14:46.546Z,14.30
2018-05-11T12:17:13.992Z,12.87
2018-05-11T12:19:41.428Z,14.00
2018-05-11T12:22:08.870Z,13.50
2018-05-11T12:24:36.321Z,13.48
2018-05-11T12:27:03.762Z,12.80
2018-05-11T12:29:31.200Z,13.73
2018-05-11T12:31:58.652Z,10.48
2018-05-11T12:34:26.094Z,11.73
2018-05-11T12:36:53.552Z,10.45
2018-05-11T12:39:21.002Z,10.90
2018-05-11T12:41:48.489Z,11.25
2018-05-11T12:44:15.917Z,10.57
2018-05-11T12:46:43.459Z,12.50
2018-05-11T12:49:10.867Z,12.77
2018-05-11T12:51:38.300Z,13.30
2018-05-11T12:54:05.770Z,11.63
2018-05-11T12:56:33.204Z,9.35
2018-05-11T12:59:00.639Z,10.45
2018-05-11T13:01:28.082Z,9.18
2018-05-11T13:03:55.509Z,11.00
2018-05-11T13:06:22.936Z,9.33
2018-05-11T13:08:50.384Z,11.73
2018-05-11T13:11:17.824Z,13.07
2018-05-11T13:13:45.252Z,14.15
2018-05-11T13:16:13.803Z,11.02
2018-05-11T13:18:41.302Z,10.82
2018-05-11T13:21:08.737Z,11.75
2018-05-11T13:23:36.186Z,9.23
2018-05-11T13:26:03.659Z,10.70
2018-05-11T13:28:31.090Z,9.52
2018-05-11T13:30:58.557Z,10.18
2018-05-11T13:33:25.990Z,9.68
2018-05-11T13:35:53.417Z,8.73
2018-05-11T13:38:20.857Z,8.65
2018-05-11T13:40:48.381Z,9.57
2018-05-11T13:43:16.094Z,9.63
2018-05-11T13:45:43.532Z,9.50
2018-05-11T13:48:11.050Z,10.27
2018-05-11T13:50:38.407Z,9.35
2018-05-11T13:53:05.845Z,8.75
2018-05-11T13:55:33.265Z,6.57
2018-05-11T13:58:00.697Z,9.77
2018-05-11T14:00:28.133Z,8.35
2018-05-11T14:02:55.561Z,8.43
2018-05-11T14:05:22.993Z,10.35
2018-05-11T14:07:50.437Z,10.00
2018-05-11T14:10:17.934Z,9.43
2018-05-11T14:12:45.309Z,10.85
2018-05-11T14:15:12.746Z,8.43
2018-05-11T14:17:40.184Z,9.75
2018-05-11T14:20:07.704Z,11.07
2018-05-11T14:22:35.258Z,9.18
2018-05-11T14:25:02.818Z,9.18
2018-05-11T14:27:30.130Z,8.38
2018-05-11T14:29:57.612Z,6.95
2018-05-11T14:32:25.426Z,8.30
2018-05-11T14:34:52.864Z,10.73
2018-05-11T14:37:20.302Z,8.18
2018-05-11T14:39:47.735Z,8.30
2018-05-11T14:42:15.166Z,9.55
2018-05-11T14:44:42.667Z,8.80
2018-05-11T14:47:10.097Z,8.63
2018-05-11T14:49:37.629Z,7.80
2018-05-11T14:52:05.039Z,7.72
2018-05-11T14:54:32.469Z,6.70
2018-05-11T14:56:59.899Z,7.28
2018-05-11T14:59:27.333Z,7.87
2018-05-11T15:01:54.766Z,9.25
2018-05-11T15:04:22.221Z,8.38
2018-05-11T15:06:49.676Z,7.62
2018-05-11T15:09:17.105Z,7.00
2018-05-11T15:11:44.560Z,7.85
2018-05-11T15:14:12.045Z,12.07
2018-05-11T15:16:39.477Z,8.00
2018-05-11T15:19:06.915Z,11.37
2018-05-11T15:21:34.385Z,16.10
2018-05-11T15:24:01.817Z,11.90
2018-05-11T15:26:29.261Z,10.20
2018-05-11T15:28:56.702Z,8.83
2018-05-11T15:31:24.124Z,9.00
2018-05-11T15:33:51.559Z,10.63
2018-05-11T15:36:19.006Z,9.87
2018-05-11T15:38:46.456Z,9.57
2018-05-11T15:41:13.914Z,9.00
2018-05-11T15:43:41.371Z,9.47
2018-05-11T15:46:08.805Z,10.53
2018-05-11T15:48:36.245Z,10.07
2018-05-11T15:51:03.695Z,9.80
2018-05-11T15:53:31.158Z,9.20
2018-05-11T15:55:58.589Z,11.70
2018-05-11T15:58:26.037Z,11.10
2018-05-11T16:00:53.469Z,9.57
2018-05-11T16:03:20.905Z,14.10
2018-05-11T16:05:48.348Z,66.83
2018-05-11T16:08:15.777Z,9.60
2018-05-11T16:10:43.214Z,10.03
2018-05-11T16:13:10.652Z,9.83
2018-05-11T16:15:38.166Z,9.87
2018-05-11T16:18:05.626Z,10.10
2018-05-11T16:20:33.133Z,10.63
2018-05-11T16:23:00.527Z,11.83
2018-05-11T16:25:27.973Z,11.30
2018-05-11T16:27:55.418Z,9.73
2018-05-11T16:30:22.849Z,11.87
2018-05-11T16:32:50.336Z,11.00
2018-05-11T16:35:17.821Z,10.10
2018-05-11T16:37:45.251Z,10.33
2018-05-11T16:40:12.686Z,9.57
2018-05-11T16:42:40.126Z,9.83
2018-05-11T16:45:07.798Z,11.80
2018-05-11T16:47:35.317Z,12.80
2018-05-11T16:50:03.182Z,10.60
2018-05-11T16:52:30.575Z,9.70
2018-05-11T16:54:58.033Z,11.30
2018-05-11T16:57:25.469Z,11.47
2018-05-11T16:59:52.945Z,10.60
2018-05-11T17:02:20.453Z,11.30
2018-05-11T17:04:47.897Z,11.07
2018-05-11T17:07:15.334Z,10.63
2018-05-11T17:09:42.829Z,12.20
2018-05-11T17:12:10.279Z,11.37
2018-05-11T17:14:37.711Z,10.90
2018-05-11T17:17:05.148Z,11.00
2018-05-11T17:19:32.673Z,10.43
2018-05-11T17:22:00.100Z,11.07
2018-05-11T17:24:27.563Z,12.27
2018-05-11T17:26:55.075Z,13.10
2018-05-11T17:29:22.487Z,14.57
2018-05-11T17:31:50.218Z,13.13
2018-05-11T17:34:17.660Z,11.77
2018-05-11T17:36:45.285Z,12.07
2018-05-11T17:39:12.684Z,10.50
2018-05-11T17:41:40.235Z,10.50
2018-05-11T17:44:07.590Z,12.20
2018-05-11T17:46:35.105Z,10.77
2018-05-11T17:49:02.566Z,18.40
2018-05-11T17:51:30.024Z,10.07
2018-05-11T17:53:57.474Z,10.47
2018-05-11T17:56:24.994Z,10.50
2018-05-11T17:58:52.425Z,13.10
2018-05-11T18:01:19.875Z,10.27
2018-05-11T18:03:47.337Z,10.20
2018-05-11T18:06:14.769Z,9.93
2018-05-11T18:08:42.211Z,11.07
2018-05-11T18:11:09.701Z,13.80
2018-05-11T18:13:37.131Z,18.20
2018-05-11T18:16:04.587Z,10.73
2018-05-11T18:18:32.045Z,11.20
2018-05-11T18:20:59.485Z,13.77
2018-05-11T18:23:26.950Z,14.70
2018-05-11T18:25:54.392Z,12.47
2018-05-11T18:28:21.825Z,10.70
2018-05-11T18:30:49.252Z,11.43
2018-05-11T18:33:16.701Z,11.10
2018-05-11T18:35:44.141Z,12.37
2018-05-11T18:38:11.577Z,12.33
2018-05-11T18:40:39.021Z,11.00
2018-05-11T18:43:06.505Z,11.50
2018-05-11T18:45:33.970Z,10.60
2018-05-11T18:48:01.412Z,11.10
2018-05-11T18:50:28.880Z,10.93
2018-05-11T18:52:56.354Z,11.30
2018-05-11T18:55:23.798Z,11.57
2018-05-11T18:57:51.235Z,12.30
2018-05-11T19:00:18.836Z,11.50
2018-05-11T19:02:46.287Z,12.00
2018-05-11T19:05:13.728Z,25.93
2018-05-11T19:07:41.163Z,13.93
2018-05-11T19:10:08.605Z,12.13
2018-05-11T19:12:36.063Z,17.57
2018-05-11T19:15:03.489Z,13.17
2018-05-11T19:17:30.936Z,12.23
2018-05-11T19:19:58.378Z,12.50
2018-05-11T19:22:25.923Z,11.67
2018-05-11T19:24:53.374Z,12.37
2018-05-11T19:27:20.824Z,14.32
2018-05-11T19:29:48.281Z,12.37
2018-05-11T19:32:15.738Z,11.17
2018-05-11T19:34:43.169Z,12.03
2018-05-11T19:37:10.621Z,10.87
2018-05-11T19:39:38.069Z,12.47
2018-05-11T19:42:05.507Z,13.00
2018-05-11T19:44:33.032Z,11.60
2018-05-11T19:47:00.487Z,11.53
2018-05-11T19:49:27.952Z,12.97
2018-05-11T19:51:55.409Z,11.57
2018-05-11T19:54:22.859Z,14.40
2018-05-11T19:56:50.298Z,17.30
2018-05-11T19:59:17.746Z,11.70
2018-05-11T20:01:45.190Z,12.90
2018-05-11T20:04:12.650Z,13.20
2018-05-11T20:06:40.090Z,13.40
2018-05-11T20:09:07.606Z,11.87
2018-05-11T20:11:35.051Z,12.17
2018-05-11T20:14:02.485Z,12.40
2018-05-11T20:16:29.941Z,12.37
2018-05-11T20:18:57.437Z,12.80
2018-05-11T20:21:24.897Z,12.40
2018-05-11T20:23:52.357Z,12.40
2018-05-11T20:26:19.793Z,12.20
2018-05-11T20:28:47.258Z,12.77
2018-05-11T20:31:14.701Z,13.20
2018-05-11T20:33:42.145Z,14.77
2018-05-11T20:36:09.573Z,12.60
2018-05-11T20:38:37.017Z,13.47
2018-05-11T20:41:04.545Z,13.20
2018-05-11T20:43:31.981Z,13.00
2018-05-11T20:45:59.441Z,13.30
2018-05-11T20:48:26.880Z,12.93
2018-05-11T20:50:54.364Z,12.50
2018-05-11T20:53:21.828Z,13.37
2018-05-11T20:55:49.256Z,12.57
2018-05-11T20:58:16.716Z,24.07
2018-05-11T21:00:44.165Z,17.30
2018-05-11T21:03:11.611Z,13.17
2018-05-11T21:05:39.050Z,14.53
2018-05-11T21:08:06.504Z,13.97
2018-05-11T21:10:33.938Z,13.60
2018-05-11T21:13:01.485Z,13.57
2018-05-11T21:15:29.470Z,13.53
2018-05-11T21:17:56.940Z,14.30
2018-05-11T21:20:24.379Z,13.50
2018-05-11T21:22:51.830Z,14.73
2018-05-11T21:25:19.282Z,14.37
2018-05-11T21:27:46.715Z,15.30
2018-05-11T21:30:14.189Z,14.97
2018-05-11T21:32:41.706Z,14.70
2018-05-11T21:35:09.209Z,14.20
2018-05-11T21:37:36.765Z,15.40
2018-05-11T21:40:04.227Z,15.43
2018-05-11T21:42:31.754Z,16.10
2018-05-11T21:44:59.133Z,16.87
2018-05-11T21:47:26.596Z,15.20
2018-05-11T21:49:54.031Z,15.80
2018-05-11T21:52:21.498Z,16.10
2018-05-11T21:54:48.942Z,15.37
2018-05-11T21:57:16.399Z,15.47
2018-05-11T21:59:43.844Z,14.70
2018-05-11T22:02:11.338Z,14.50
2018-05-11T22:04:38.762Z,14.93
2018-05-11T22:07:06.214Z,16.53
2018-05-11T22:09:33.645Z,16.63
2018-05-11T22:12:01.132Z,15.27
2018-05-11T22:14:28.574Z,15.80
2018-05-11T22:16:56.050Z,15.77
2018-05-11T22:19:23.480Z,16.63
2018-05-11T22:21:50.933Z,15.97
2018-05-11T22:24:18.364Z,15.93
2018-05-11T22:26:45.797Z,16.30
2018-05-11T22:29:13.263Z,15.60
2018-05-11T22:31:40.704Z,15.03
2018-05-11T22:34:08.151Z,15.83
2018-05-11T22:36:35.605Z,16.47
2018-05-11T22:39:03.095Z,14.90
2018-05-11T22:41:30.533Z,16.27
2018-05-11T22:43:58.000Z,17.53
2018-05-11T22:46:25.431Z,16.23
2018-05-11T22:48:52.872Z,15.57
2018-05-11T22:51:20.372Z,16.40
2018-05-11T22:53:47.809Z,17.13
2018-05-11T22:56:15.292Z,16.83
2018-05-11T22:58:42.736Z,15.80
2018-05-11T23:01:10.174Z,15.47
2018-05-11T23:03:37.710Z,14.87
2018-05-11T23:06:05.120Z,15.13
2018-05-11T23:08:32.553Z,16.40
2018-05-11T23:10:59.989Z,15.17
2018-05-11T23:13:27.566Z,15.53
2018-05-11T23:15:55.004Z,17.10
2018-05-11T23:18:22.444Z,15.50
2018-05-11T23:20:49.891Z,15.53
2018-05-11T23:23:17.413Z,16.77
2018-05-11T23:25:44.875Z,15.53
2018-05-11T23:28:12.313Z,15.80
2018-05-11T23:30:39.749Z,14.47
2018-05-11T23:33:07.185Z,15.73
2018-05-11T23:35:34.629Z,14.80
2018-05-11T23:38:02.062Z,14.07
2018-05-11T23:40:29.513Z,14.13
2018-05-11T23:42:56.962Z,15.50
2018-05-11T23:45:24.405Z,15.73
2018-05-11T23:47:52.500Z,15.07
2018-05-11T23:50:19.960Z,15.17
2018-05-11T23:52:47.412Z,16.67
2018-05-11T23:55:14.837Z,14.10
2018-05-11T23:57:42.583Z,16.10
